Vashon Island, Washington
Current Conditions -  °F | °C
As of 4:30 AM on Sunday 25 Jan 2015 (Local Time) from KSEA Reporting Station
Haze Haze  
Wind Chill: 52°   Ceiling: 400
Heat Index: 52°   Visibility: 3mi
Dew Point: 50°   Wind: 6mph
Humidity: 94%   Direction: 180°S
Pressure: 30.21"   Gusts: NA
Location:  47.4122°N, 122.472°W
Report Text: KSEA 251230Z 18005KT 3SM BR BKN004 OVC008 11/10 A3021 RMK AO2
Loading
Personal Weather Stations






























Interactive Weather Map New forecast layout! Learn more

10-Day Weather Forecast

Advertisements
Track Severe Weather on mobile